sensor_id;sensor_type;location;lat;lon;timestamp;P1;durP1;ratioP1;P2;durP2;ratioP2
82722;SDS011;72450;42.008;21.356;2023-11-21T00:00:31;36.88;;;18.88;;
82722;SDS011;72450;42.008;21.356;2023-11-21T00:02:57;32.88;;;17.50;;
82722;SDS011;72450;42.008;21.356;2023-11-21T00:05:23;30.45;;;17.33;;
82722;SDS011;72450;42.008;21.356;2023-11-21T00:07:49;32.50;;;19.20;;
82722;SDS011;72450;42.008;21.356;2023-11-21T00:10:16;34.20;;;18.40;;
82722;SDS011;72450;42.008;21.356;2023-11-21T00:12:42;31.23;;;17.23;;
82722;SDS011;72450;42.008;21.356;2023-11-21T00:15:08;38.83;;;20.30;;
82722;SDS011;72450;42.008;21.356;2023-11-21T00:17:37;42.30;;;22.70;;
82722;SDS011;72450;42.008;21.356;2023-11-21T00:20:05;48.00;;;25.77;;
82722;SDS011;72450;42.008;21.356;2023-11-21T00:22:35;44.72;;;22.85;;
82722;SDS011;72450;42.008;21.356;2023-11-21T00:25:01;43.65;;;24.35;;
82722;SDS011;72450;42.008;21.356;2023-11-21T00:27:29;50.60;;;27.75;;
82722;SDS011;72450;42.008;21.356;2023-11-21T00:29:55;57.95;;;29.45;;
82722;SDS011;72450;42.008;21.356;2023-11-21T00:32:21;48.72;;;25.45;;
82722;SDS011;72450;42.008;21.356;2023-11-21T00:34:47;55.90;;;27.50;;
82722;SDS011;72450;42.008;21.356;2023-11-21T00:37:14;66.85;;;34.85;;
82722;SDS011;72450;42.008;21.356;2023-11-21T00:39:40;72.43;;;36.55;;
82722;SDS011;72450;42.008;21.356;2023-11-21T00:42:06;64.13;;;30.88;;
82722;SDS011;72450;42.008;21.356;2023-11-21T00:44:33;56.53;;;30.15;;
82722;SDS011;72450;42.008;21.356;2023-11-21T00:46:59;66.93;;;36.97;;
82722;SDS011;72450;42.008;21.356;2023-11-21T00:49:25;61.85;;;32.95;;
82722;SDS011;72450;42.008;21.356;2023-11-21T00:51:53;61.80;;;33.13;;
82722;SDS011;72450;42.008;21.356;2023-11-21T00:54:19;71.13;;;36.88;;
82722;SDS011;72450;42.008;21.356;2023-11-21T00:56:45;83.88;;;42.40;;
82722;SDS011;72450;42.008;21.356;2023-11-21T00:59:13;65.07;;;34.92;;
82722;SDS011;72450;42.008;21.356;2023-11-21T01:01:39;68.93;;;36.60;;
82722;SDS011;72450;42.008;21.356;2023-11-21T01:04:05;73.18;;;39.67;;
82722;SDS011;72450;42.008;21.356;2023-11-21T01:06:32;68.97;;;36.40;;
82722;SDS011;72450;42.008;21.356;2023-11-21T01:08:58;68.30;;;33.05;;
82722;SDS011;72450;42.008;21.356;2023-11-21T01:11:24;79.72;;;38.95;;
82722;SDS011;72450;42.008;21.356;2023-11-21T01:13:51;68.40;;;37.78;;
82722;SDS011;72450;42.008;21.356;2023-11-21T01:16:18;73.05;;;35.85;;
82722;SDS011;72450;42.008;21.356;2023-11-21T01:18:44;67.85;;;34.08;;
82722;SDS011;72450;42.008;21.356;2023-11-21T01:21:10;77.82;;;39.45;;
82722;SDS011;72450;42.008;21.356;2023-11-21T01:23:37;63.65;;;32.10;;
82722;SDS011;72450;42.008;21.356;2023-11-21T01:26:03;59.85;;;29.98;;
82722;SDS011;72450;42.008;21.356;2023-11-21T01:28:29;63.90;;;34.53;;
82722;SDS011;72450;42.008;21.356;2023-11-21T01:30:55;57.17;;;29.83;;
82722;SDS011;72450;42.008;21.356;2023-11-21T01:33:21;55.97;;;28.60;;
82722;SDS011;72450;42.008;21.356;2023-11-21T01:35:50;56.08;;;30.50;;
82722;SDS011;72450;42.008;21.356;2023-11-21T01:38:18;57.55;;;28.27;;
82722;SDS011;72450;42.008;21.356;2023-11-21T01:40:44;44.55;;;25.00;;
82722;SDS011;72450;42.008;21.356;2023-11-21T01:43:10;49.45;;;27.33;;
82722;SDS011;72450;42.008;21.356;2023-11-21T01:45:36;53.22;;;29.73;;
82722;SDS011;72450;42.008;21.356;2023-11-21T01:48:04;46.00;;;25.42;;
82722;SDS011;72450;42.008;21.356;2023-11-21T01:50:31;44.63;;;25.17;;
82722;SDS011;72450;42.008;21.356;2023-11-21T01:52:58;45.33;;;24.88;;
82722;SDS011;72450;42.008;21.356;2023-11-21T01:55:25;36.65;;;20.17;;
82722;SDS011;72450;42.008;21.356;2023-11-21T01:57:52;33.97;;;21.00;;
82722;SDS011;72450;42.008;21.356;2023-11-21T02:00:18;40.83;;;22.10;;
82722;SDS011;72450;42.008;21.356;2023-11-21T02:02:45;36.90;;;19.00;;
82722;SDS011;72450;42.008;21.356;2023-11-21T02:05:12;32.13;;;19.08;;
82722;SDS011;72450;42.008;21.356;2023-11-21T02:07:39;42.20;;;23.02;;
82722;SDS011;72450;42.008;21.356;2023-11-21T02:10:06;48.20;;;24.52;;
82722;SDS011;72450;42.008;21.356;2023-11-21T02:12:32;32.08;;;18.77;;
82722;SDS011;72450;42.008;21.356;2023-11-21T02:15:00;41.35;;;21.85;;
82722;SDS011;72450;42.008;21.356;2023-11-21T02:17:27;45.15;;;20.85;;
82722;SDS011;72450;42.008;21.356;2023-11-21T02:19:54;34.97;;;19.20;;
82722;SDS011;72450;42.008;21.356;2023-11-21T02:22:21;38.95;;;22.50;;
82722;SDS011;72450;42.008;21.356;2023-11-21T02:24:51;46.33;;;25.95;;
82722;SDS011;72450;42.008;21.356;2023-11-21T02:27:17;54.78;;;24.33;;
82722;SDS011;72450;42.008;21.356;2023-11-21T02:29:46;37.08;;;21.17;;
82722;SDS011;72450;42.008;21.356;2023-11-21T02:32:13;43.40;;;24.35;;
82722;SDS011;72450;42.008;21.356;2023-11-21T02:34:39;43.03;;;21.55;;
82722;SDS011;72450;42.008;21.356;2023-11-21T02:37:05;41.25;;;22.33;;
82722;SDS011;72450;42.008;21.356;2023-11-21T02:39:31;44.15;;;24.33;;
82722;SDS011;72450;42.008;21.356;2023-11-21T02:41:57;44.90;;;20.60;;
82722;SDS011;72450;42.008;21.356;2023-11-21T02:44:23;43.72;;;25.00;;
82722;SDS011;72450;42.008;21.356;2023-11-21T02:46:49;51.13;;;27.45;;
82722;SDS011;72450;42.008;21.356;2023-11-21T02:49:15;44.30;;;21.73;;
82722;SDS011;72450;42.008;21.356;2023-11-21T02:51:41;36.70;;;22.30;;
82722;SDS011;72450;42.008;21.356;2023-11-21T02:54:08;32.08;;;19.33;;
82722;SDS011;72450;42.008;21.356;2023-11-21T02:56:35;35.15;;;18.95;;
82722;SDS011;72450;42.008;21.356;2023-11-21T02:59:01;36.33;;;19.92;;
82722;SDS011;72450;42.008;21.356;2023-11-21T03:01:27;37.20;;;20.15;;
82722;SDS011;72450;42.008;21.356;2023-11-21T03:03:53;28.92;;;17.88;;
82722;SDS011;72450;42.008;21.356;2023-11-21T03:06:21;33.80;;;19.75;;
82722;SDS011;72450;42.008;21.356;2023-11-21T03:08:47;33.10;;;19.27;;
82722;SDS011;72450;42.008;21.356;2023-11-21T03:11:13;32.72;;;17.02;;
82722;SDS011;72450;42.008;21.356;2023-11-21T03:13:40;39.92;;;20.88;;
82722;SDS011;72450;42.008;21.356;2023-11-21T03:16:09;34.80;;;20.85;;
82722;SDS011;72450;42.008;21.356;2023-11-21T03:18:36;31.67;;;16.50;;
82722;SDS011;72450;42.008;21.356;2023-11-21T03:21:02;30.95;;;19.88;;
82722;SDS011;72450;42.008;21.356;2023-11-21T03:23:28;32.83;;;20.33;;
82722;SDS011;72450;42.008;21.356;2023-11-21T03:25:55;33.05;;;17.65;;
82722;SDS011;72450;42.008;21.356;2023-11-21T03:28:21;45.15;;;24.17;;
82722;SDS011;72450;42.008;21.356;2023-11-21T03:30:47;48.63;;;27.77;;
82722;SDS011;72450;42.008;21.356;2023-11-21T03:33:13;37.47;;;19.50;;
82722;SDS011;72450;42.008;21.356;2023-11-21T03:35:39;44.58;;;25.25;;
82722;SDS011;72450;42.008;21.356;2023-11-21T03:38:07;36.50;;;21.70;;
82722;SDS011;72450;42.008;21.356;2023-11-21T03:40:33;37.65;;;19.52;;
82722;SDS011;72450;42.008;21.356;2023-11-21T03:42:59;38.35;;;21.65;;
82722;SDS011;72450;42.008;21.356;2023-11-21T03:45:25;42.22;;;25.48;;
82722;SDS011;72450;42.008;21.356;2023-11-21T03:47:51;36.25;;;21.80;;
82722;SDS011;72450;42.008;21.356;2023-11-21T03:50:17;43.63;;;26.20;;
82722;SDS011;72450;42.008;21.356;2023-11-21T03:52:43;50.13;;;29.30;;
82722;SDS011;72450;42.008;21.356;2023-11-21T03:55:09;51.55;;;29.50;;
82722;SDS011;72450;42.008;21.356;2023-11-21T03:57:35;55.65;;;33.35;;
82722;SDS011;72450;42.008;21.356;2023-11-21T04:00:02;57.38;;;32.85;;
82722;SDS011;72450;42.008;21.356;2023-11-21T04:02:29;49.40;;;29.38;;
82722;SDS011;72450;42.008;21.356;2023-11-21T04:04:56;51.92;;;31.67;;
82722;SDS011;72450;42.008;21.356;2023-11-21T04:07:23;46.47;;;27.73;;
82722;SDS011;72450;42.008;21.356;2023-11-21T04:09:49;43.83;;;24.98;;
82722;SDS011;72450;42.008;21.356;2023-11-21T04:12:15;42.67;;;23.70;;
82722;SDS011;72450;42.008;21.356;2023-11-21T04:14:41;43.13;;;24.17;;
82722;SDS011;72450;42.008;21.356;2023-11-21T04:17:07;43.38;;;23.58;;
82722;SDS011;72450;42.008;21.356;2023-11-21T04:19:33;38.33;;;22.63;;
82722;SDS011;72450;42.008;21.356;2023-11-21T04:21:59;43.03;;;22.60;;
82722;SDS011;72450;42.008;21.356;2023-11-21T04:24:25;35.92;;;21.05;;
82722;SDS011;72450;42.008;21.356;2023-11-21T04:26:52;40.53;;;23.92;;
82722;SDS011;72450;42.008;21.356;2023-11-21T04:29:18;40.15;;;22.95;;
82722;SDS011;72450;42.008;21.356;2023-11-21T04:31:44;41.72;;;20.38;;
82722;SDS011;72450;42.008;21.356;2023-11-21T04:34:11;45.53;;;24.25;;
82722;SDS011;72450;42.008;21.356;2023-11-21T04:36:39;38.45;;;21.65;;
82722;SDS011;72450;42.008;21.356;2023-11-21T04:39:05;36.30;;;20.60;;
82722;SDS011;72450;42.008;21.356;2023-11-21T04:41:32;35.28;;;22.30;;
82722;SDS011;72450;42.008;21.356;2023-11-21T04:43:58;37.17;;;19.52;;
82722;SDS011;72450;42.008;21.356;2023-11-21T04:46:25;33.60;;;19.60;;
82722;SDS011;72450;42.008;21.356;2023-11-21T04:48:51;33.17;;;21.90;;
82722;SDS011;72450;42.008;21.356;2023-11-21T04:51:17;32.90;;;19.33;;
82722;SDS011;72450;42.008;21.356;2023-11-21T04:53:43;35.75;;;19.05;;
82722;SDS011;72450;42.008;21.356;2023-11-21T04:56:10;33.53;;;20.60;;
82722;SDS011;72450;42.008;21.356;2023-11-21T04:58:36;33.60;;;18.83;;
82722;SDS011;72450;42.008;21.356;2023-11-21T05:01:02;31.67;;;18.77;;
82722;SDS011;72450;42.008;21.356;2023-11-21T05:03:28;35.83;;;20.10;;
82722;SDS011;72450;42.008;21.356;2023-11-21T05:05:55;35.78;;;17.38;;
82722;SDS011;72450;42.008;21.356;2023-11-21T05:08:21;27.80;;;18.08;;
82722;SDS011;72450;42.008;21.356;2023-11-21T05:10:47;34.80;;;20.38;;
82722;SDS011;72450;42.008;21.356;2023-11-21T05:13:17;33.97;;;18.25;;
82722;SDS011;72450;42.008;21.356;2023-11-21T05:15:44;31.05;;;18.52;;
82722;SDS011;72450;42.008;21.356;2023-11-21T05:18:10;29.88;;;19.95;;
82722;SDS011;72450;42.008;21.356;2023-11-21T05:20:38;28.95;;;17.10;;
82722;SDS011;72450;42.008;21.356;2023-11-21T05:23:06;26.15;;;15.98;;
82722;SDS011;72450;42.008;21.356;2023-11-21T05:25:33;36.65;;;20.17;;
82722;SDS011;72450;42.008;21.356;2023-11-21T05:27:59;32.40;;;17.15;;
82722;SDS011;72450;42.008;21.356;2023-11-21T05:30:26;28.80;;;15.80;;
82722;SDS011;72450;42.008;21.356;2023-11-21T05:32:53;31.85;;;18.00;;
82722;SDS011;72450;42.008;21.356;2023-11-21T05:35:19;27.55;;;17.38;;
82722;SDS011;72450;42.008;21.356;2023-11-21T05:37:46;30.67;;;19.00;;
82722;SDS011;72450;42.008;21.356;2023-11-21T05:40:12;31.63;;;18.40;;
82722;SDS011;72450;42.008;21.356;2023-11-21T05:42:38;32.45;;;20.02;;
82722;SDS011;72450;42.008;21.356;2023-11-21T05:45:05;48.92;;;25.35;;
82722;SDS011;72450;42.008;21.356;2023-11-21T05:47:39;46.25;;;25.40;;
82722;SDS011;72450;42.008;21.356;2023-11-21T05:50:06;35.75;;;20.38;;
82722;SDS011;72450;42.008;21.356;2023-11-21T05:52:35;30.65;;;18.92;;
82722;SDS011;72450;42.008;21.356;2023-11-21T05:55:02;29.42;;;18.05;;
82722;SDS011;72450;42.008;21.356;2023-11-21T05:59:55;29.95;;;14.77;;
82722;SDS011;72450;42.008;21.356;2023-11-21T06:02:22;27.73;;;17.73;;
82722;SDS011;72450;42.008;21.356;2023-11-21T06:04:48;27.95;;;15.90;;
82722;SDS011;72450;42.008;21.356;2023-11-21T06:07:14;29.40;;;16.90;;
82722;SDS011;72450;42.008;21.356;2023-11-21T06:09:40;32.55;;;19.30;;
82722;SDS011;72450;42.008;21.356;2023-11-21T06:12:06;32.55;;;18.65;;
82722;SDS011;72450;42.008;21.356;2023-11-21T06:14:32;29.60;;;19.55;;
82722;SDS011;72450;42.008;21.356;2023-11-21T06:19:26;30.73;;;18.00;;
82722;SDS011;72450;42.008;21.356;2023-11-21T06:21:52;31.73;;;19.05;;
82722;SDS011;72450;42.008;21.356;2023-11-21T06:24:18;33.78;;;19.23;;
82722;SDS011;72450;42.008;21.356;2023-11-21T06:26:45;28.80;;;16.52;;
82722;SDS011;72450;42.008;21.356;2023-11-21T06:29:13;31.85;;;17.27;;
82722;SDS011;72450;42.008;21.356;2023-11-21T06:31:40;40.15;;;21.35;;
82722;SDS011;72450;42.008;21.356;2023-11-21T06:34:06;24.67;;;14.52;;
82722;SDS011;72450;42.008;21.356;2023-11-21T06:36:34;33.13;;;20.02;;
82722;SDS011;72450;42.008;21.356;2023-11-21T06:39:01;28.98;;;17.88;;
82722;SDS011;72450;42.008;21.356;2023-11-21T06:41:27;25.33;;;13.98;;
82722;SDS011;72450;42.008;21.356;2023-11-21T06:43:54;29.50;;;17.80;;
82722;SDS011;72450;42.008;21.356;2023-11-21T06:46:20;20.33;;;13.60;;
82722;SDS011;72450;42.008;21.356;2023-11-21T06:48:46;24.33;;;16.35;;
82722;SDS011;72450;42.008;21.356;2023-11-21T06:51:14;21.40;;;12.75;;
82722;SDS011;72450;42.008;21.356;2023-11-21T06:53:40;36.08;;;19.63;;
82722;SDS011;72450;42.008;21.356;2023-11-21T06:56:15;31.00;;;17.70;;
82722;SDS011;72450;42.008;21.356;2023-11-21T06:58:41;41.72;;;23.35;;
82722;SDS011;72450;42.008;21.356;2023-11-21T07:01:07;49.78;;;27.27;;
82722;SDS011;72450;42.008;21.356;2023-11-21T07:03:33;39.22;;;22.00;;
82722;SDS011;72450;42.008;21.356;2023-11-21T07:05:59;31.10;;;19.52;;
82722;SDS011;72450;42.008;21.356;2023-11-21T07:08:25;32.53;;;20.40;;
82722;SDS011;72450;42.008;21.356;2023-11-21T07:10:51;50.45;;;27.70;;
82722;SDS011;72450;42.008;21.356;2023-11-21T07:13:17;34.92;;;19.90;;
82722;SDS011;72450;42.008;21.356;2023-11-21T07:15:43;34.88;;;21.48;;
82722;SDS011;72450;42.008;21.356;2023-11-21T07:18:09;29.98;;;18.30;;
82722;SDS011;72450;42.008;21.356;2023-11-21T07:20:36;31.92;;;18.00;;
82722;SDS011;72450;42.008;21.356;2023-11-21T07:23:02;33.63;;;18.55;;
82722;SDS011;72450;42.008;21.356;2023-11-21T07:25:29;19.60;;;9.93;;
82722;SDS011;72450;42.008;21.356;2023-11-21T07:27:55;30.50;;;18.35;;
82722;SDS011;72450;42.008;21.356;2023-11-21T07:30:21;34.72;;;17.95;;
82722;SDS011;72450;42.008;21.356;2023-11-21T07:32:48;37.15;;;19.48;;
82722;SDS011;72450;42.008;21.356;2023-11-21T07:35:14;34.38;;;18.80;;
82722;SDS011;72450;42.008;21.356;2023-11-21T07:37:40;32.58;;;19.05;;
82722;SDS011;72450;42.008;21.356;2023-11-21T07:40:06;30.40;;;17.92;;
82722;SDS011;72450;42.008;21.356;2023-11-21T07:42:33;28.65;;;17.67;;
82722;SDS011;72450;42.008;21.356;2023-11-21T07:45:00;32.35;;;18.75;;
82722;SDS011;72450;42.008;21.356;2023-11-21T07:47:27;27.95;;;16.70;;
82722;SDS011;72450;42.008;21.356;2023-11-21T07:49:54;28.55;;;17.42;;
82722;SDS011;72450;42.008;21.356;2023-11-21T07:52:21;33.08;;;18.73;;
82722;SDS011;72450;42.008;21.356;2023-11-21T07:54:47;30.67;;;16.55;;
82722;SDS011;72450;42.008;21.356;2023-11-21T07:57:13;29.60;;;17.00;;
82722;SDS011;72450;42.008;21.356;2023-11-21T07:59:40;27.52;;;16.73;;
82722;SDS011;72450;42.008;21.356;2023-11-21T08:02:06;37.13;;;17.42;;
82722;SDS011;72450;42.008;21.356;2023-11-21T08:04:33;32.17;;;19.85;;
82722;SDS011;72450;42.008;21.356;2023-11-21T08:07:00;28.65;;;19.63;;
82722;SDS011;72450;42.008;21.356;2023-11-21T08:09:27;32.13;;;19.10;;
82722;SDS011;72450;42.008;21.356;2023-11-21T08:11:53;44.38;;;22.00;;
82722;SDS011;72450;42.008;21.356;2023-11-21T08:14:19;39.28;;;23.63;;
82722;SDS011;72450;42.008;21.356;2023-11-21T08:16:45;44.95;;;28.83;;
82722;SDS011;72450;42.008;21.356;2023-11-21T08:19:12;51.15;;;29.35;;
82722;SDS011;72450;42.008;21.356;2023-11-21T08:21:38;52.35;;;30.95;;
82722;SDS011;72450;42.008;21.356;2023-11-21T08:24:08;66.95;;;36.33;;
82722;SDS011;72450;42.008;21.356;2023-11-21T08:26:36;71.03;;;37.63;;
82722;SDS011;72450;42.008;21.356;2023-11-21T08:29:02;64.03;;;33.38;;
82722;SDS011;72450;42.008;21.356;2023-11-21T08:31:32;99.55;;;55.63;;
82722;SDS011;72450;42.008;21.356;2023-11-21T08:33:58;82.55;;;48.00;;
82722;SDS011;72450;42.008;21.356;2023-11-21T08:36:28;85.50;;;47.08;;
82722;SDS011;72450;42.008;21.356;2023-11-21T08:38:54;102.18;;;58.22;;
82722;SDS011;72450;42.008;21.356;2023-11-21T08:41:20;132.60;;;78.85;;
82722;SDS011;72450;42.008;21.356;2023-11-21T08:43:52;140.85;;;82.30;;
82722;SDS011;72450;42.008;21.356;2023-11-21T08:46:20;153.13;;;88.97;;
82722;SDS011;72450;42.008;21.356;2023-11-21T08:48:46;152.70;;;91.82;;
82722;SDS011;72450;42.008;21.356;2023-11-21T08:51:12;174.82;;;101.85;;
82722;SDS011;72450;42.008;21.356;2023-11-21T08:53:39;215.30;;;129.18;;
82722;SDS011;72450;42.008;21.356;2023-11-21T08:56:05;199.20;;;119.70;;
82722;SDS011;72450;42.008;21.356;2023-11-21T08:58:31;179.82;;;103.43;;
82722;SDS011;72450;42.008;21.356;2023-11-21T09:00:58;163.30;;;97.13;;
82722;SDS011;72450;42.008;21.356;2023-11-21T09:03:24;162.90;;;94.47;;
82722;SDS011;72450;42.008;21.356;2023-11-21T09:05:50;152.85;;;89.30;;
82722;SDS011;72450;42.008;21.356;2023-11-21T09:08:16;162.68;;;95.75;;
82722;SDS011;72450;42.008;21.356;2023-11-21T09:10:42;159.10;;;93.25;;
82722;SDS011;72450;42.008;21.356;2023-11-21T09:13:12;160.30;;;93.72;;
82722;SDS011;72450;42.008;21.356;2023-11-21T09:15:38;153.43;;;89.47;;
82722;SDS011;72450;42.008;21.356;2023-11-21T09:18:05;158.77;;;88.75;;
82722;SDS011;72450;42.008;21.356;2023-11-21T09:20:31;134.60;;;80.95;;
82722;SDS011;72450;42.008;21.356;2023-11-21T09:22:57;125.95;;;77.95;;
82722;SDS011;72450;42.008;21.356;2023-11-21T09:25:23;146.45;;;85.28;;
82722;SDS011;72450;42.008;21.356;2023-11-21T09:27:49;149.82;;;86.93;;
82722;SDS011;72450;42.008;21.356;2023-11-21T09:30:15;140.05;;;85.70;;
82722;SDS011;72450;42.008;21.356;2023-11-21T09:32:42;139.82;;;82.38;;
82722;SDS011;72450;42.008;21.356;2023-11-21T09:35:10;145.00;;;85.43;;
82722;SDS011;72450;42.008;21.356;2023-11-21T09:37:38;139.75;;;83.13;;
82722;SDS011;72450;42.008;21.356;2023-11-21T09:40:05;129.50;;;80.70;;
82722;SDS011;72450;42.008;21.356;2023-11-21T09:42:42;137.60;;;80.35;;
82722;SDS011;72450;42.008;21.356;2023-11-21T09:45:26;137.82;;;81.93;;
82722;SDS011;72450;42.008;21.356;2023-11-21T09:47:53;134.50;;;77.43;;
82722;SDS011;72450;42.008;21.356;2023-11-21T09:50:20;123.80;;;67.88;;
82722;SDS011;72450;42.008;21.356;2023-11-21T09:55:28;108.10;;;65.90;;
82722;SDS011;72450;42.008;21.356;2023-11-21T09:57:56;114.75;;;64.45;;
82722;SDS011;72450;42.008;21.356;2023-11-21T10:02:49;99.47;;;55.20;;
82722;SDS011;72450;42.008;21.356;2023-11-21T10:05:16;86.68;;;48.13;;
82722;SDS011;72450;42.008;21.356;2023-11-21T10:07:45;92.03;;;55.33;;
82722;SDS011;72450;42.008;21.356;2023-11-21T10:10:12;87.40;;;53.22;;
82722;SDS011;72450;42.008;21.356;2023-11-21T10:15:07;81.93;;;49.58;;
82722;SDS011;72450;42.008;21.356;2023-11-21T10:17:35;82.40;;;47.38;;
82722;SDS011;72450;42.008;21.356;2023-11-21T10:20:08;75.13;;;45.95;;
82722;SDS011;72450;42.008;21.356;2023-11-21T10:22:38;86.00;;;48.83;;
82722;SDS011;72450;42.008;21.356;2023-11-21T10:25:06;84.78;;;47.75;;
82722;SDS011;72450;42.008;21.356;2023-11-21T10:27:33;79.82;;;48.50;;
82722;SDS011;72450;42.008;21.356;2023-11-21T10:30:02;84.13;;;49.85;;
82722;SDS011;72450;42.008;21.356;2023-11-21T10:32:33;82.72;;;50.72;;
82722;SDS011;72450;42.008;21.356;2023-11-21T10:34:59;90.20;;;54.75;;
82722;SDS011;72450;42.008;21.356;2023-11-21T10:37:27;89.25;;;52.85;;
82722;SDS011;72450;42.008;21.356;2023-11-21T10:39:57;92.50;;;51.60;;
82722;SDS011;72450;42.008;21.356;2023-11-21T10:42:23;82.10;;;51.88;;
82722;SDS011;72450;42.008;21.356;2023-11-21T10:44:49;89.18;;;52.28;;
82722;SDS011;72450;42.008;21.356;2023-11-21T10:47:17;83.13;;;47.38;;
82722;SDS011;72450;42.008;21.356;2023-11-21T10:49:44;93.30;;;53.70;;
82722;SDS011;72450;42.008;21.356;2023-11-21T10:52:12;96.82;;;56.97;;
82722;SDS011;72450;42.008;21.356;2023-11-21T10:54:42;94.72;;;57.05;;
82722;SDS011;72450;42.008;21.356;2023-11-21T10:57:09;90.90;;;53.97;;
82722;SDS011;72450;42.008;21.356;2023-11-21T10:59:36;94.18;;;55.05;;
82722;SDS011;72450;42.008;21.356;2023-11-21T11:02:07;82.38;;;47.85;;
82722;SDS011;72450;42.008;21.356;2023-11-21T11:04:38;96.78;;;54.35;;
82722;SDS011;72450;42.008;21.356;2023-11-21T11:07:05;87.45;;;51.88;;
82722;SDS011;72450;42.008;21.356;2023-11-21T11:09:34;85.85;;;51.53;;
82722;SDS011;72450;42.008;21.356;2023-11-21T11:12:04;64.07;;;39.63;;
82722;SDS011;72450;42.008;21.356;2023-11-21T11:14:31;61.17;;;35.45;;
82722;SDS011;72450;42.008;21.356;2023-11-21T11:16:57;68.93;;;41.97;;
82722;SDS011;72450;42.008;21.356;2023-11-21T11:19:25;64.38;;;35.63;;
82722;SDS011;72450;42.008;21.356;2023-11-21T11:24:33;76.30;;;45.53;;
82722;SDS011;72450;42.008;21.356;2023-11-21T11:35:26;107.20;;;60.67;;
82722;SDS011;72450;42.008;21.356;2023-11-21T11:37:56;126.45;;;73.65;;
82722;SDS011;72450;42.008;21.356;2023-11-21T11:40:24;152.93;;;89.53;;
82722;SDS011;72450;42.008;21.356;2023-11-21T11:42:55;151.50;;;93.50;;
82722;SDS011;72450;42.008;21.356;2023-11-21T11:45:22;160.93;;;97.57;;
82722;SDS011;72450;42.008;21.356;2023-11-21T11:47:56;149.52;;;94.47;;
82722;SDS011;72450;42.008;21.356;2023-11-21T11:50:22;164.98;;;99.65;;
82722;SDS011;72450;42.008;21.356;2023-11-21T11:52:50;177.50;;;100.50;;
82722;SDS011;72450;42.008;21.356;2023-11-21T11:55:18;149.30;;;82.85;;
82722;SDS011;72450;42.008;21.356;2023-11-21T11:57:48;149.82;;;91.25;;
82722;SDS011;72450;42.008;21.356;2023-11-21T12:07:54;92.40;;;52.88;;
82722;SDS011;72450;42.008;21.356;2023-11-21T12:10:22;82.00;;;47.13;;
82722;SDS011;72450;42.008;21.356;2023-11-21T12:12:54;72.82;;;41.92;;
82722;SDS011;72450;42.008;21.356;2023-11-21T12:15:21;77.78;;;41.40;;
82722;SDS011;72450;42.008;21.356;2023-11-21T12:17:47;83.30;;;43.03;;
82722;SDS011;72450;42.008;21.356;2023-11-21T12:20:20;74.00;;;39.38;;
82722;SDS011;72450;42.008;21.356;2023-11-21T12:22:47;74.10;;;39.70;;
82722;SDS011;72450;42.008;21.356;2023-11-21T12:27:50;75.43;;;36.75;;
82722;SDS011;72450;42.008;21.356;2023-11-21T12:30:18;73.30;;;33.85;;
82722;SDS011;72450;42.008;21.356;2023-11-21T12:32:45;73.45;;;36.08;;
82722;SDS011;72450;42.008;21.356;2023-11-21T12:35:13;68.43;;;37.95;;
82722;SDS011;72450;42.008;21.356;2023-11-21T12:37:40;79.80;;;38.83;;
82722;SDS011;72450;42.008;21.356;2023-11-21T12:40:10;79.32;;;36.83;;
82722;SDS011;72450;42.008;21.356;2023-11-21T12:42:40;71.60;;;37.88;;
82722;SDS011;72450;42.008;21.356;2023-11-21T12:45:26;76.95;;;40.55;;
82722;SDS011;72450;42.008;21.356;2023-11-21T12:48:02;68.22;;;37.97;;
82722;SDS011;72450;42.008;21.356;2023-11-21T12:50:29;66.07;;;35.05;;
82722;SDS011;72450;42.008;21.356;2023-11-21T12:53:08;66.80;;;37.10;;
82722;SDS011;72450;42.008;21.356;2023-11-21T12:55:37;66.05;;;35.40;;
82722;SDS011;72450;42.008;21.356;2023-11-21T12:58:03;70.15;;;34.60;;
82722;SDS011;72450;42.008;21.356;2023-11-21T13:00:42;70.50;;;39.03;;
82722;SDS011;72450;42.008;21.356;2023-11-21T13:03:11;75.32;;;38.90;;
82722;SDS011;72450;42.008;21.356;2023-11-21T13:05:40;79.45;;;37.70;;
82722;SDS011;72450;42.008;21.356;2023-11-21T13:08:11;82.32;;;42.13;;
82722;SDS011;72450;42.008;21.356;2023-11-21T13:13:04;74.32;;;36.28;;
82722;SDS011;72450;42.008;21.356;2023-11-21T13:15:31;82.20;;;39.97;;
82722;SDS011;72450;42.008;21.356;2023-11-21T13:18:00;80.97;;;41.90;;
82722;SDS011;72450;42.008;21.356;2023-11-21T13:20:26;82.13;;;37.53;;
82722;SDS011;72450;42.008;21.356;2023-11-21T13:22:53;76.85;;;42.47;;
82722;SDS011;72450;42.008;21.356;2023-11-21T13:25:22;79.97;;;40.85;;
82722;SDS011;72450;42.008;21.356;2023-11-21T13:27:49;73.32;;;40.00;;
82722;SDS011;72450;42.008;21.356;2023-11-21T13:30:16;77.45;;;37.17;;
82722;SDS011;72450;42.008;21.356;2023-11-21T13:32:46;74.05;;;34.92;;
82722;SDS011;72450;42.008;21.356;2023-11-21T13:35:14;74.47;;;39.17;;
82722;SDS011;72450;42.008;21.356;2023-11-21T13:37:51;81.00;;;38.30;;
82722;SDS011;72450;42.008;21.356;2023-11-21T13:40:21;79.35;;;41.72;;
82722;SDS011;72450;42.008;21.356;2023-11-21T13:42:51;78.88;;;38.33;;
82722;SDS011;72450;42.008;21.356;2023-11-21T13:45:18;81.32;;;38.53;;
82722;SDS011;72450;42.008;21.356;2023-11-21T13:47:46;69.57;;;34.80;;
82722;SDS011;72450;42.008;21.356;2023-11-21T13:50:12;69.78;;;37.30;;
82722;SDS011;72450;42.008;21.356;2023-11-21T13:52:44;72.90;;;38.72;;
82722;SDS011;72450;42.008;21.356;2023-11-21T13:55:10;71.43;;;34.92;;
82722;SDS011;72450;42.008;21.356;2023-11-21T13:57:41;71.95;;;36.17;;
82722;SDS011;72450;42.008;21.356;2023-11-21T14:00:10;64.57;;;32.60;;
82722;SDS011;72450;42.008;21.356;2023-11-21T14:02:56;59.75;;;30.52;;
82722;SDS011;72450;42.008;21.356;2023-11-21T14:05:28;67.68;;;32.80;;
82722;SDS011;72450;42.008;21.356;2023-11-21T14:07:56;68.38;;;34.15;;
82722;SDS011;72450;42.008;21.356;2023-11-21T14:10:31;72.78;;;35.63;;
82722;SDS011;72450;42.008;21.356;2023-11-21T14:13:05;67.45;;;31.80;;
82722;SDS011;72450;42.008;21.356;2023-11-21T14:15:32;79.95;;;36.65;;
82722;SDS011;72450;42.008;21.356;2023-11-21T14:18:02;71.90;;;36.25;;
82722;SDS011;72450;42.008;21.356;2023-11-21T14:20:32;76.05;;;39.70;;
82722;SDS011;72450;42.008;21.356;2023-11-21T14:23:01;71.93;;;37.10;;
82722;SDS011;72450;42.008;21.356;2023-11-21T14:25:27;75.20;;;39.78;;
82722;SDS011;72450;42.008;21.356;2023-11-21T14:27:53;78.88;;;41.35;;
82722;SDS011;72450;42.008;21.356;2023-11-21T14:30:21;68.20;;;38.92;;
82722;SDS011;72450;42.008;21.356;2023-11-21T14:32:47;74.10;;;38.40;;
82722;SDS011;72450;42.008;21.356;2023-11-21T14:35:15;66.13;;;36.92;;
82722;SDS011;72450;42.008;21.356;2023-11-21T14:37:42;159.82;;;66.68;;
82722;SDS011;72450;42.008;21.356;2023-11-21T14:40:09;227.00;;;83.40;;
82722;SDS011;72450;42.008;21.356;2023-11-21T14:42:38;160.80;;;64.93;;